D/T METAR WX W/DIR W/SPE G/SPE TEMP DEWP
25/02/20 13:20 EGWU 251320Z 26016KT 9999 SCT029 BKN070 09/02 Q0998 NOSIG RMK BLU BLU W (260°) 18.4mph 9°C 2°C
25/02/20 12:50 EGWU 251250Z 26016KT 9999 -SHRA FEW032 SCT040 BKN080 08/01 Q0999 NOSIG RMK BLU BLU -SHRA W (260°) 18.4mph 8°C 1°C
25/02/20 12:20 EGWU 251220Z 27017KT 9999 FEW031 BKN090 09/01 Q0999 TEMPO -SHRA SCT024 RMK BLU TEMPO WHT W (270°) 19.6mph 9°C 1°C
25/02/20 11:50 EGWU 251150Z 27015KT 9999 FEW027 BKN080 08/01 Q1000 TEMPO -SHRA SCT024 RMK BLU TEMPO WHT W (270°) 17.3mph 8°C 1°C
25/02/20 11:20 EGWU 251120Z 27015KT 9999 FEW025 BKN085 08/01 Q1000 NOSIG RMK BLU BLU W (270°) 17.3mph 8°C 1°C
25/02/20 10:50 EGWU 251050Z 27015KT 9999 FEW022 BKN100 07/02 Q1000 TEMPO SCT022 RMK BLU TEMPO WHT W (270°) 17.3mph 7°C 2°C
25/02/20 10:21 EGWU 251021Z 27014KT 9999 FEW022 BKN130 08/03 Q1000 TEMPO -SHRA SCT022 RMK BLU TEMPO WHT W (270°) 16.1mph 8°C 3°C
25/02/20 09:50 EGWU 250950Z 27013KT 9999 FEW019 BKN150 07/03 Q1001 TEMPO SCT019 W (270°) 15.0mph 7°C 3°C
25/02/20 09:23 EGWU 250923Z 25013KT 9999 SCT018 07/03 Q1001 TEMPO FEW018 RMK WHT TEMPO BLU WSW (250°) 15.0mph 7°C 3°C
25/02/20 08:50 EGWU 250850Z 26013KT 9999 SCT021 06/03 Q1001 TEMPO FEW021 W (260°) 15.0mph 6°C 3°C
25/02/20 08:24 EGWU 250824Z 26013KT 9999 FEW021 SCT028 06/03 Q1002 NOSIG RMK BLU BLU W (260°) 15.0mph 6°C 3°C
25/02/20 07:50 EGWU 250750Z 26013KT 9999 FEW017 05/03 Q1002 NOSIG RMK BLU BLU W (260°) 15.0mph 5°C 3°C
25/02/20 07:20 EGWU 250720Z 25008KT 9999 SCT017 BKN100 05/03 Q1002 TEMPO FEW017 RMK WHT TEMPO BLU WSW (250°) 9.2mph 5°C 3°C
25/02/20 06:50 EGWU 250650Z 25009KT 9999 FEW023 BKN110 05/03 Q1002 TEMPO 7000 SHRA SCT020 RMK BLU TEMPO WHT WSW (250°) 10.4mph 5°C 3°C
25/02/20 05:50 EGWU 250550Z AUTO 25007KT 9999 // FEW025/// 05/02 Q1003 WSW (250°) 8.1mph 5°C 2°C
25/02/20 04:50 EGWU 250450Z AUTO 26009KT 9999 // NCD 05/02 Q1003 W (260°) 10.4mph 5°C 2°C
25/02/20 03:50 EGWU 250350Z AUTO 25010KT 9999 // NCD 05/03 Q1003 WSW (250°) 11.5mph 5°C 3°C
25/02/20 02:50 EGWU 250250Z AUTO 28010KT 9999 // NCD 06/03 Q1004 W (280°) 11.5mph 6°C 3°C
25/02/20 01:50 EGWU 250150Z AUTO 26010KT 9999 // NCD 06/04 Q1004 W (260°) 11.5mph 6°C 4°C
25/02/20 00:50 EGWU 250050Z AUTO 26009KT 9999 // FEW048/// 07/04 Q1004 W (260°) 10.4mph 7°C 4°C
24/02/20 23:50 EGWU 242350Z 25009KT 9999 BKN045 07/03 Q1005 NOSIG RMK BLU BLU WSW (250°) 10.4mph 7°C 3°C
24/02/20 23:20 EGWU 242320Z 27010KT 9999 FEW040 07/03 Q1005 NOSIG RMK BLU BLU W (270°) 11.5mph 7°C 3°C
24/02/20 22:50 EGWU 242250Z 27012KT 9999 SCT040 BKN250 08/04 Q1005 NOSIG RMK BLU BLU W (270°) 13.8mph 8°C 4°C
24/02/20 22:20 EGWU 242220Z 29008KT 9999 FEW025 BKN040 BKN250 08/04 Q1005 NOSIG RMK BLU BLU WNW (290°) 9.2mph 8°C 4°C
24/02/20 21:50 EGWU 242150Z 29010KT 9999 BKN044 BKN250 08/05 Q1005 NOSIG RMK BLU BLU WNW (290°) 11.5mph 8°C 5°C
24/02/20 21:20 EGWU 242120Z 29012KT 9999 FEW045 BKN250 08/05 Q1005 NOSIG RMK BLU BLU WNW (290°) 13.8mph 8°C 5°C
24/02/20 20:50 EGWU 242050Z 27015KT 9999 FEW021 BKN045 BKN250 09/06 Q1005 NOSIG RMK BLU BLU W (270°) 17.3mph 9°C 6°C
24/02/20 20:20 EGWU 242020Z 27015KT 9999 SCT021 BKN240 09/06 Q1005 BECMG FEW021 SCT040 W (270°) 17.3mph 9°C 6°C
24/02/20 19:50 EGWU 241950Z 26015KT 9999 FEW024 BKN240 10/06 Q1005 NOSIG RMK BLU BLU W (260°) 17.3mph 10°C 6°C
24/02/20 19:20 EGWU 241920Z 26015KT 9999 FEW022 BKN230 10/06 Q1004 NOSIG RMK BLU BLU W (260°) 17.3mph 10°C 6°C
24/02/20 18:50 EGWU 241850Z 26016G26KT 9999 SCT040 BKN220 11/06 Q1004 NOSIG RMK BLU BLU W (260°) 18.4mph 29.9mph 11°C 6°C
24/02/20 18:20 EGWU 241820Z 28019KT 9999 FEW028 BKN035 11/07 Q1004 NOSIG RMK BLU BLU W (280°) 21.9mph 11°C 7°C
24/02/20 17:50 EGWU 241750Z 28022KT 9999 SCT020 BKN032 12/08 Q1004 BECMG FEW020 BKN032 RMK WHT BECMG BLU W (280°) 25.3mph 12°C 8°C
24/02/20 17:20 EGWU 241720Z 26016KT 9999 BKN018 BKN025 12/09 Q1003 BECMG BKN025 W (260°) 18.4mph 12°C 9°C
24/02/20 16:50 EGWU 241650Z 25017KT 9999 BKN016 BKN022 12/09 Q1003 BECMG BKN030 RMK WHT BECMG BLU WSW (250°) 19.6mph 12°C 9°C
24/02/20 16:20 EGWU 241620Z 26018G31KT 9999 -RA BKN014 BKN022 12/10 Q1003 BECMG BKN030 RMK GRN BECMG BLU -RA W (260°) 20.7mph 35.7mph 12°C 10°C
24/02/20 15:50 EGWU 241550Z 25018G28KT 9999 BKN016 BKN022 12/10 Q1003 BECMG BKN030 RMK WHT BECMG BLU WSW (250°) 20.7mph 32.2mph 12°C 10°C
24/02/20 15:20 EGWU 241520Z 25018KT 9999 BKN014 BKN020 12/09 Q1003 BECMG BKN015 RMK GRN BECMG WHT WSW (250°) 20.7mph 12°C 9°C
24/02/20 14:50 EGWU 241450Z 24016G29KT 9999 BKN014 BKN020 12/09 Q1004 BECMG BKN015 RMK GRN BECMG WHT WSW (240°) 18.4mph 33.4mph 12°C 9°C
24/02/20 13:50 EGWU 241350Z 24017KT 9999 -RA FEW011 BKN013 BKN020 11/10 Q1005 TEMPO 6000 -RADZ RMK GRN TEMPO GRN -RA WSW (240°) 19.6mph 11°C 10°C
24/02/20 13:23 EGWU 241323Z 24016KT 9999 -RA FEW011 BKN013 BKN020 11/10 Q1005 TEMPO 6000 -RADZ RMK GRN TEMPO GRN -RA WSW (240°) 18.4mph 11°C 10°C
24/02/20 12:50 EGWU 241250Z 25017KT 9999 -RA FEW010 BKN013 BKN020 11/10 Q1006 TEMPO 6000 -RADZ RMK GRN TEMPO GRN -RA WSW (250°) 19.6mph 11°C 10°C
24/02/20 12:20 EGWU 241220Z 24017KT 9999 RA FEW011 BKN013 OVC020 11/10 Q1006 TEMPO 6000 -RADZ RMK GRN TEMPO GRN RA WSW (240°) 19.6mph 11°C 10°C
24/02/20 11:50 EGWU 241150Z 25016KT 9999 RA FEW011 BKN013 11/10 Q1007 TEMPO 6000 RMK GRN TEMPO GRN RA WSW (250°) 18.4mph 11°C 10°C
24/02/20 11:20 EGWU 241120Z 24016KT 9999 -RA BKN011 OVC020 11/10 Q1007 RERA TEMPO 5000 RA RMK GRN TEMPO GRN -RA WSW (240°) 18.4mph 11°C 10°C
24/02/20 10:50 EGWU 241050Z 24017KT 9999 RA BKN009 BKN012 11/10 Q1007 TEMPO 5000 RMK GRN TEMPO GRN RA WSW (240°) 19.6mph 11°C 10°C
24/02/20 10:20 EGWU 241020Z 24014G24KT 9999 -RA SCT009 BKN014 11/09 Q1008 TEMPO 5000 RA RMK GRN TEMPO GRN -RA WSW (240°) 16.1mph 27.6mph 11°C 9°C
24/02/20 09:50 EGWU 240950Z 24015KT 9999 -DZ FEW011 BKN014 OVC020 11/09 Q1008 TEMPO 4000 RADZ RMK GRN TEMPO GRN -DZ WSW (240°) 17.3mph 11°C 9°C